Terminal Aerodrome Forecast
Issued by NWS

Home | Current Version | Previous Version | Text Only | Print | Product List | Glossary On
Versions: 1 2 3 4 5 6 7 8 9 10 11 12 13 14 15 16 17 18 19
000
FTUS42 KFFC 291723
TAFPDK
TAF
KPDK 291723Z 2918/3018 20009G15KT P6SM BKN200
     FM292100 20010KT P6SM BKN090
     FM300000 21006KT P6SM SCT025 BKN080
     FM300200 23005KT P6SM BKN025 OVC080 PROB30 3003/3006 -RA BKN012
     FM300900 32010G16KT P6SM OVC040
     FM301400 33012G23KT P6SM SCT045=

USA.gov is the U.S. government's official web portal to all federal, state and local government web resources and services.